Time;durP1;ratioP1;P1;durP2;ratioP2;P2;SDS_P1;SDS_P2;PMS_P1;PMS_P2;Temp;Humidity;BMP_temperature;BMP_pressure;BME280_temperature;BME280_humidity;BME280_pressure;Samples;Min_cycle;Max_cycle;Signal;HPM_P1;HPM_P2
2022/04/26 03:38:16;;;;;;;7.77;5.70;;;;;;;8.95;100.00;95802.66;5054506;28;20224;-83
2022/04/26 03:40:43;;;;;;;6.93;5.53;;;;;;;8.95;100.00;95803.47;5042895;28;20193;-84
2022/04/26 03:43:10;;;;;;;7.40;6.17;;;;;;;8.99;100.00;95799.28;5044746;28;20205;-83
2022/04/26 03:45:37;;;;;;;3.77;3.40;;;;;;;8.90;100.00;95799.84;5041341;28;20231;-83
2022/04/26 03:48:05;;;;;;;4.87;3.97;;;;;;;8.93;100.00;95802.88;5041375;28;20214;-84
2022/04/26 03:50:33;;;;;;;5.00;4.20;;;;;;;8.95;100.00;95803.47;5048222;28;20245;-84
2022/04/26 03:53:00;;;;;;;7.80;4.90;;;;;;;8.92;100.00;95795.06;5056810;28;20304;-83
2022/04/26 03:55:27;;;;;;;7.33;5.47;;;;;;;8.94;100.00;95801.84;5032662;28;20283;-84
2022/04/26 03:57:54;;;;;;;6.53;5.23;;;;;;;8.89;100.00;95804.41;5041637;28;20501;-83
2022/04/26 04:00:22;;;;;;;5.30;4.37;;;;;;;8.92;100.00;95803.97;5050439;28;20213;-84
2022/04/26 04:02:49;;;;;;;7.03;5.03;;;;;;;8.93;100.00;95800.19;5048803;28;20309;-84
2022/04/26 04:05:16;;;;;;;8.43;5.70;;;;;;;8.94;100.00;95807.22;5058513;28;20252;-83
2022/04/26 04:07:45;;;;;;;7.20;5.73;;;;;;;8.91;100.00;95807.69;5052996;28;20235;-84
2022/04/26 04:10:12;;;;;;;8.13;5.77;;;;;;;8.94;100.00;95815.28;5043202;28;20206;-84
2022/04/26 04:12:39;;;;;;;7.10;5.87;;;;;;;8.95;100.00;95819.63;5048946;28;20260;-84
2022/04/26 04:15:07;;;;;;;6.47;5.60;;;;;;;8.89;100.00;95827.81;5045559;28;20225;-84
2022/04/26 04:17:34;;;;;;;5.60;4.33;;;;;;;8.82;100.00;95827.13;5042710;28;20267;-83
2022/04/26 04:20:01;;;;;;;5.30;4.20;;;;;;;8.83;100.00;95832.28;5047939;28;20413;-84
2022/04/26 04:22:29;;;;;;;5.33;4.83;;;;;;;8.88;100.00;95815.41;5040617;28;20209;-83
2022/04/26 04:24:57;;;;;;;5.97;5.37;;;;;;;8.92;100.00;95830.06;5052919;28;20214;-83
2022/04/26 04:27:25;;;;;;;7.40;5.10;;;;;;;8.91;100.00;95823.84;5051478;28;20217;-83
2022/04/26 04:29:52;;;;;;;7.50;5.37;;;;;;;8.89;100.00;95825.94;5044529;28;20212;-84
2022/04/26 04:32:19;;;;;;;5.53;4.80;;;;;;;8.86;100.00;95818.31;5042147;28;20226;-83
2022/04/26 04:34:46;;;;;;;6.07;5.30;;;;;;;8.87;100.00;95811.91;5046383;28;20241;-84
2022/04/26 04:37:14;;;;;;;8.10;5.90;;;;;;;8.88;100.00;95821.63;5044705;28;20229;-83
2022/04/26 04:39:42;;;;;;;8.17;5.60;;;;;;;8.77;100.00;95811.66;5038168;28;20198;-83
2022/04/26 04:42:13;;;;;;;5.83;4.83;;;;;;;8.75;100.00;95823.72;5053607;28;20210;-83
2022/04/26 04:44:41;;;;;;;8.93;5.47;;;;;;;8.74;100.00;95822.91;5059100;28;20217;-83
2022/04/26 04:47:08;;;;;;;6.90;5.30;;;;;;;8.78;100.00;95825.94;5044291;28;20224;-84
2022/04/26 04:49:35;;;;;;;10.17;5.43;;;;;;;8.85;100.00;95826.63;5038964;28;20224;-83
2022/04/26 04:52:02;;;;;;;7.30;6.30;;;;;;;8.80;100.00;95832.72;5048625;28;20202;-83
2022/04/26 04:54:30;;;;;;;8.07;6.00;;;;;;;8.75;100.00;95839.88;5047973;28;20209;-83
2022/04/26 04:56:57;;;;;;;6.40;5.40;;;;;;;8.75;100.00;95838.00;5034644;28;20206;-84
2022/04/26 04:59:28;;;;;;;10.80;5.67;;;;;;;8.83;100.00;95837.66;5058379;28;20213;-84
2022/04/26 05:01:55;;;;;;;6.53;5.13;;;;;;;8.89;100.00;95838.59;5059772;28;20205;-83
2022/04/26 05:04:22;;;;;;;6.43;5.27;;;;;;;8.95;100.00;95843.88;5049375;28;20220;-83
2022/04/26 05:06:49;;;;;;;7.40;5.13;;;;;;;9.04;100.00;95839.78;5057771;28;20206;-83
2022/04/26 05:09:16;;;;;;;9.27;4.93;;;;;;;8.93;100.00;95837.88;5044839;28;20213;-83
2022/04/26 05:11:44;;;;;;;9.27;4.50;;;;;;;8.92;100.00;95827.38;5055645;28;20209;-83
2022/04/26 05:14:11;;;;;;;5.87;4.97;;;;;;;8.91;100.00;95834.63;5047770;28;20209;-83
2022/04/26 05:16:39;;;;;;;5.23;4.30;;;;;;;8.89;100.00;95825.94;5058910;28;20264;-84
2022/04/26 05:19:06;;;;;;;6.20;4.77;;;;;;;8.93;100.00;95820.94;5041908;28;20221;-83
2022/04/26 05:21:34;;;;;;;6.40;5.20;;;;;;;8.90;100.00;95822.22;5051547;28;20202;-84
2022/04/26 05:26:46;;;;;;;6.90;5.90;;;;;;;8.86;100.00;95815.63;5055055;28;20218;-83
2022/04/26 05:29:13;;;;;;;7.90;5.97;;;;;;;8.82;100.00;95797.50;5043443;28;20205;-83
2022/04/26 05:31:41;;;;;;;7.37;6.23;;;;;;;8.83;100.00;95802.66;5050163;28;20203;-84
2022/04/26 05:34:08;;;;;;;6.07;5.47;;;;;;;8.88;100.00;95793.88;5051171;28;20588;-84
2022/04/26 05:36:35;;;;;;;5.70;5.10;;;;;;;8.88;100.00;95785.78;5049619;28;20202;-84
2022/04/26 05:39:02;;;;;;;5.10;4.60;;;;;;;8.83;100.00;95794.59;5046600;28;20212;-84
2022/04/26 05:41:30;;;;;;;7.20;5.90;;;;;;;8.76;100.00;95793.88;5060093;28;20206;-84
2022/04/26 05:43:57;;;;;;;6.67;5.63;;;;;;;8.73;100.00;95791.66;5055817;28;20288;-84
2022/04/26 05:46:24;;;;;;;8.00;6.40;;;;;;;8.77;100.00;95806.25;5052181;28;20225;-84
2022/04/26 05:48:53;;;;;;;7.67;6.20;;;;;;;8.69;100.00;95814.66;5042422;28;20216;-84
2022/04/26 05:51:21;;;;;;;8.37;5.03;;;;;;;8.74;100.00;95817.50;5038296;28;20205;-84
2022/04/26 05:53:48;;;;;;;5.10;4.60;;;;;;;8.76;100.00;95819.97;5052429;28;20205;-83
2022/04/26 05:56:16;;;;;;;5.13;4.57;;;;;;;8.77;100.00;95825.09;5056388;28;20201;-84
2022/04/26 05:58:44;;;;;;;4.60;3.93;;;;;;;8.81;100.00;95839.75;5039240;28;20212;-84
2022/04/26 06:01:11;;;;;;;4.77;4.27;;;;;;;8.85;100.00;95842.78;5053708;28;20217;-84
2022/04/26 06:03:38;;;;;;;5.73;4.70;;;;;;;8.88;100.00;95835.09;5042305;28;20217;-84
2022/04/26 06:06:07;;;;;;;6.67;5.10;;;;;;;8.93;100.00;95832.50;5051278;28;20247;-85
2022/04/26 06:08:35;;;;;;;5.77;5.17;;;;;;;8.94;100.00;95817.16;5036148;28;20202;-84
2022/04/26 06:11:02;;;;;;;5.83;5.17;;;;;;;9.08;100.00;95832.88;5043485;28;20209;-84
2022/04/26 06:13:29;;;;;;;7.03;5.27;;;;;;;9.05;100.00;95838.72;5043913;28;20613;-84
2022/04/26 06:15:56;;;;;;;5.97;4.90;;;;;;;9.02;100.00;95841.88;5055824;28;20248;-84
2022/04/26 06:18:24;;;;;;;6.60;5.30;;;;;;;9.14;100.00;95839.19;5054047;28;20221;-84
2022/04/26 06:20:51;;;;;;;6.20;5.20;;;;;;;9.17;100.00;95849.53;5058695;28;20307;-84
2022/04/26 06:23:19;;;;;;;6.83;5.20;;;;;;;9.26;100.00;95850.00;5054305;28;20236;-84
2022/04/26 06:25:46;;;;;;;6.20;5.50;;;;;;;9.25;100.00;95840.28;5039144;28;20261;-84
2022/04/26 06:28:13;;;;;;;6.90;5.40;;;;;;;9.26;100.00;95833.84;5043508;28;20210;-85
2022/04/26 06:30:40;;;;;;;7.37;5.50;;;;;;;9.37;100.00;95846.47;5043739;28;20213;-84
2022/04/26 06:33:07;;;;;;;7.43;5.63;;;;;;;9.47;100.00;95844.81;5049058;28;20245;-84
2022/04/26 06:35:34;;;;;;;6.93;5.50;;;;;;;9.57;100.00;95844.22;5049885;28;20205;-84
2022/04/26 06:38:02;;;;;;;5.77;4.80;;;;;;;9.66;100.00;95845.50;5054880;28;20206;-86
2022/04/26 06:40:31;;;;;;;5.90;5.30;;;;;;;9.74;100.00;95841.63;5060958;28;20223;-85
2022/04/26 06:42:58;;;;;;;8.10;5.27;;;;;;;9.80;100.00;95841.50;5059511;28;20235;-85
2022/04/26 06:45:25;;;;;;;5.77;4.83;;;;;;;9.84;100.00;95839.97;5042633;28;20269;-86
2022/04/26 06:47:54;;;;;;;6.53;5.37;;;;;;;9.84;100.00;95839.16;5052902;28;20209;-85
2022/04/26 06:50:21;;;;;;;6.47;5.30;;;;;;;9.89;100.00;95828.47;5060453;28;20214;-85
2022/04/26 06:52:48;;;;;;;6.57;5.03;;;;;;;9.93;100.00;95828.81;5053420;28;20248;-85
2022/04/26 06:55:15;;;;;;;5.50;5.00;;;;;;;10.01;100.00;95834.66;5064888;28;20284;-84
2022/04/26 06:57:45;;;;;;;6.80;5.50;;;;;;;9.99;100.00;95831.38;5044132;28;20202;-85
2022/04/26 07:00:13;;;;;;;6.00;5.30;;;;;;;9.91;100.00;95830.94;5037065;28;20234;-84
2022/04/26 07:02:40;;;;;;;5.67;4.93;;;;;;;9.96;100.00;95825.63;5043940;28;20197;-84
2022/04/26 07:05:08;;;;;;;8.10;5.67;;;;;;;10.07;100.00;95827.47;5046248;28;20324;-84
2022/04/26 07:07:36;;;;;;;9.30;7.53;;;;;;;10.10;100.00;95833.22;5038058;28;20225;-84
2022/04/26 07:10:04;;;;;;;7.20;6.33;;;;;;;10.19;100.00;95841.78;5054968;28;20240;-84
2022/04/26 07:12:31;;;;;;;6.47;5.70;;;;;;;10.33;100.00;95845.00;5058863;28;20210;-85
2022/04/26 07:15:00;;;;;;;6.60;5.30;;;;;;;10.32;100.00;95841.50;5046334;28;20209;-85
2022/04/26 07:17:28;;;;;;;7.83;4.87;;;;;;;10.44;100.00;95847.66;5045831;28;20252;-85
2022/04/26 07:19:55;;;;;;;4.50;4.10;;;;;;;10.52;100.00;95855.38;5039774;28;20236;-85
2022/04/26 07:22:22;;;;;;;3.90;3.50;;;;;;;10.56;100.00;95859.22;5048883;28;20205;-84
2022/04/26 07:24:49;;;;;;;3.40;3.00;;;;;;;10.58;100.00;95861.69;5052010;28;20230;-85
2022/04/26 07:27:16;;;;;;;4.97;2.77;;;;;;;10.65;100.00;95866.91;5044011;28;20328;-84
2022/04/26 07:29:44;;;;;;;3.90;2.60;;;;;;;10.65;100.00;95877.72;5055451;28;20214;-84
2022/04/26 07:32:13;;;;;;;5.37;2.80;;;;;;;10.70;100.00;95884.06;5055779;28;20292;-84
2022/04/26 07:34:39;;;;;;;2.90;2.33;;;;;;;10.57;100.00;95885.16;5037040;28;20206;-84
2022/04/26 07:37:06;;;;;;;5.47;2.70;;;;;;;10.59;100.00;95896.53;5061706;28;20237;-84
2022/04/26 07:39:35;;;;;;;3.80;2.20;;;;;;;10.49;100.00;95912.53;5044459;28;20260;-84
2022/04/26 07:42:03;;;;;;;2.93;2.00;;;;;;;10.41;100.00;95907.50;5045452;28;20263;-85
2022/04/26 07:44:31;;;;;;;3.23;1.83;;;;;;;10.37;100.00;95924.44;5044915;28;20231;-85
2022/04/26 07:46:59;;;;;;;4.53;2.33;;;;;;;10.26;100.00;95926.09;5046059;28;20303;-84
2022/04/26 07:49:28;;;;;;;1.60;1.47;;;;;;;10.20;100.00;95938.69;5036626;28;20209;-84
2022/04/26 07:51:55;;;;;;;1.70;1.60;;;;;;;10.09;100.00;95930.56;5037286;28;20198;-84
2022/04/26 07:54:23;;;;;;;1.70;1.60;;;;;;;9.98;100.00;95928.69;5054489;28;20229;-85
2022/04/26 07:56:51;;;;;;;2.37;1.53;;;;;;;9.90;100.00;95948.75;5046175;28;20202;-84
2022/04/26 07:59:18;;;;;;;1.67;1.40;;;;;;;9.80;100.00;95960.13;5058537;28;20224;-84
2022/04/26 08:01:45;;;;;;;1.20;1.10;;;;;;;9.69;100.00;95969.06;5060089;28;20260;-84
2022/04/26 08:04:12;;;;;;;1.10;1.00;;;;;;;9.58;100.00;95974.44;5044095;28;20272;-84
2022/04/26 08:06:42;;;;;;;1.10;1.00;;;;;;;9.52;100.00;95986.97;5062263;28;20237;-84
2022/04/26 08:09:09;;;;;;;1.10;1.00;;;;;;;9.37;100.00;95989.25;5046165;28;20206;-84
2022/04/26 08:11:37;;;;;;;0.90;0.90;;;;;;;9.23;100.00;95994.03;5052370;28;20201;-84
2022/04/26 08:14:04;;;;;;;2.00;1.20;;;;;;;9.06;100.00;95990.38;5044752;28;20221;-85
2022/04/26 08:16:32;;;;;;;1.03;0.93;;;;;;;8.99;100.00;95993.16;5057590;28;20208;-85
2022/04/26 08:18:59;;;;;;;2.70;1.13;;;;;;;8.89;100.00;96003.66;5059062;28;20206;-85
2022/04/26 08:21:26;;;;;;;0.90;0.90;;;;;;;8.82;100.00;96016.38;5045713;28;20230;-85
2022/04/26 08:29:24;;;;;;;2.00;1.30;;;;;;;8.61;100.00;96014.97;5042305;28;20240;-84
2022/04/26 08:31:52;;;;;;;1.20;1.10;;;;;;;8.60;100.00;96036.72;5045115;28;20233;-84
2022/04/26 08:34:19;;;;;;;1.50;1.37;;;;;;;8.52;100.00;96048.63;5059612;28;20237;-85
2022/04/26 08:36:47;;;;;;;1.13;1.03;;;;;;;8.38;100.00;96049.00;5049099;28;20207;-85
2022/04/26 08:39:16;;;;;;;1.67;1.20;;;;;;;8.30;100.00;96058.97;5045897;28;20201;-85
2022/04/26 08:41:43;;;;;;;1.53;1.20;;;;;;;8.29;100.00;96061.88;5054520;28;20253;-85
2022/04/26 08:44:10;;;;;;;1.20;1.10;;;;;;;8.31;100.00;96071.44;5043230;28;20206;-85
2022/04/26 08:52:08;;;;;;;2.30;0.80;;;;;;;8.22;100.00;96123.81;5061785;28;20437;-84
2022/04/26 08:54:36;;;;;;;1.33;0.90;;;;;;;8.19;100.00;96100.06;5055548;28;20197;-85
2022/04/26 08:57:04;;;;;;;2.90;1.10;;;;;;;8.07;100.00;96119.84;5034222;28;20306;-85
2022/04/26 08:59:31;;;;;;;1.03;0.60;;;;;;;7.99;100.00;96123.63;5030784;28;20263;-84
2022/04/26 09:02:18;;;;;;;0.90;0.90;;;;;;;7.93;100.00;96138.75;5033084;28;20258;-85
2022/04/26 09:04:45;;;;;;;0.80;0.80;;;;;;;7.86;100.00;96131.78;5048234;28;20301;-86
2022/04/26 09:07:27;;;;;;;0.80;0.80;;;;;;;7.77;100.00;96127.72;5042970;28;20221;-85
2022/04/26 09:10:06;;;;;;;3.80;0.70;;;;;;;7.81;100.00;96139.69;5039823;28;20218;-85
2022/04/26 09:12:53;;;;;;;0.70;0.60;;;;;;;7.74;100.00;96144.28;5051595;28;20209;-86
2022/04/26 09:15:24;;;;;;;0.93;0.60;;;;;;;7.66;100.00;96152.59;5040090;28;20210;-85
2022/04/26 09:17:52;;;;;;;0.83;0.70;;;;;;;7.54;100.00;96157.84;5062037;28;20209;-85
2022/04/26 09:20:33;;;;;;;2.60;0.90;;;;;;;7.56;100.00;96170.03;5033994;28;20210;-85
2022/04/26 09:23:00;;;;;;;0.70;0.70;;;;;;;7.48;100.00;96174.84;5043026;28;20202;-86
2022/04/26 09:25:28;;;;;;;2.73;1.40;;;;;;;7.48;100.00;96199.00;5063485;28;20216;-87
2022/04/26 09:28:00;;;;;;;1.53;0.90;;;;;;;7.36;100.00;96206.06;5064809;28;20201;-86
2022/04/26 09:30:29;;;;;;;1.20;1.07;;;;;;;7.27;100.00;96218.94;5065459;28;20205;-86
2022/04/26 09:32:56;;;;;;;1.23;0.80;;;;;;;7.08;100.00;96214.44;5046199;28;20326;-86
2022/04/26 09:35:25;;;;;;;0.70;0.70;;;;;;;6.96;100.00;96230.41;5049508;28;20214;-86
2022/04/26 09:37:52;;;;;;;2.97;1.00;;;;;;;6.90;100.00;96225.00;5051323;28;20288;-86
2022/04/26 09:40:20;;;;;;;4.40;1.10;;;;;;;6.87;100.00;96237.03;5054244;28;20296;-86
2022/04/26 09:42:50;;;;;;;2.53;0.87;;;;;;;6.84;100.00;96248.16;5054483;28;20209;-86
2022/04/26 09:45:18;;;;;;;1.03;0.70;;;;;;;6.78;100.00;96252.53;5055569;28;20260;-86
2022/04/26 09:47:46;;;;;;;1.73;1.10;;;;;;;6.79;100.00;96259.53;5039045;28;20224;-87
2022/04/26 09:50:15;;;;;;;1.00;0.90;;;;;;;6.80;100.00;96271.91;5046709;28;20206;-86
2022/04/26 09:52:43;;;;;;;1.37;0.90;;;;;;;6.82;100.00;96285.13;5048946;28;20205;-87
2022/04/26 09:55:13;;;;;;;0.90;0.80;;;;;;;6.75;100.00;96282.44;5034713;28;20216;-86
2022/04/26 09:57:42;;;;;;;1.33;0.97;;;;;;;6.74;100.00;96277.28;5058123;28;20213;-87
2022/04/26 10:00:13;;;;;;;0.93;0.80;;;;;;;6.70;100.00;96287.63;5044483;28;20213;-86
2022/04/26 10:02:46;;;;;;;1.00;0.90;;;;;;;6.71;100.00;96291.97;5052948;28;20221;-86
2022/04/26 10:05:15;;;;;;;1.20;1.10;;;;;;;6.74;100.00;96288.84;5052140;28;20214;-86
2022/04/26 10:07:46;;;;;;;2.17;1.03;;;;;;;6.82;100.00;96290.47;5034200;28;20229;-86
2022/04/26 10:10:14;;;;;;;2.97;1.30;;;;;;;6.75;100.00;96287.81;5046743;28;20209;-87
2022/04/26 10:13:31;;;;;;;1.83;1.67;;;;;;;6.74;100.00;96290.69;5051697;28;20202;-86
2022/04/26 10:15:31;;;;;;;1.93;1.10;;;;;;;6.94;100.00;96301.41;5036665;28;20207;-85
2022/04/26 10:17:58;;;;;;;1.77;1.00;;;;;;;6.98;100.00;96299.94;5046546;28;20201;-85
2022/04/26 10:20:44;;;;;;;3.80;0.77;;;;;;;7.09;100.00;96312.75;5048142;28;20212;-86
2022/04/26 10:23:11;;;;;;;0.60;0.60;;;;;;;7.04;100.00;96316.06;5038020;28;20204;-86
2022/04/26 10:25:38;;;;;;;0.80;0.80;;;;;;;7.11;100.00;96332.16;5050583;28;20257;-85
2022/04/26 10:28:23;;;;;;;0.53;0.53;;;;;;;7.04;100.00;96326.81;5059948;28;20213;-85
2022/04/26 10:30:53;;;;;;;0.60;0.60;;;;;;;7.24;100.00;96326.75;5045085;28;20206;-86
2022/04/26 10:33:37;;;;;;;0.50;0.50;;;;;;;7.08;100.00;96325.34;5034802;28;20254;-86
2022/04/26 10:36:33;;;;;;;0.60;0.60;;;;;;;7.25;100.00;96330.28;5060194;28;20228;-85
2022/04/26 10:39:31;;;;;;;0.60;0.60;;;;;;;7.47;100.00;96332.50;5039172;28;20214;-86
2022/04/26 10:41:58;;;;;;;0.70;0.70;;;;;;;7.52;100.00;96332.69;5049526;28;20220;-85
2022/04/26 10:44:33;;;;;;;0.60;0.60;;;;;;;7.59;100.00;96336.16;5060170;28;20218;-86
2022/04/26 10:47:30;;;;;;;0.60;0.60;;;;;;;7.59;100.00;96340.72;5043906;28;20221;-85
2022/04/26 10:50:02;;;;;;;0.67;0.67;;;;;;;7.63;100.00;96347.34;5043863;28;20215;-86
2022/04/26 10:52:41;;;;;;;0.80;0.80;;;;;;;7.66;100.00;96346.06;5052861;28;20210;-86
2022/04/26 10:55:10;;;;;;;0.67;0.67;;;;;;;7.73;100.00;96336.16;5056437;28;20197;-86
2022/04/26 10:57:40;;;;;;;1.10;0.90;;;;;;;7.78;100.00;96347.06;5039518;28;20202;-85
2022/04/26 11:00:10;;;;;;;0.70;0.70;;;;;;;7.73;100.00;96354.97;5025473;28;20237;-85
2022/04/26 11:02:40;;;;;;;1.03;1.00;;;;;;;7.73;100.00;96360.34;5053765;28;20237;-85
2022/04/26 11:05:10;;;;;;;2.43;2.13;;;;;;;7.64;100.00;96358.91;5049056;28;20219;-86
2022/04/26 11:07:38;;;;;;;1.47;1.30;;;;;;;7.58;100.00;96364.06;5034024;28;20250;-85
2022/04/26 11:10:07;;;;;;;2.57;2.23;;;;;;;7.53;100.00;96363.06;5044016;28;20209;-86
2022/04/26 11:12:36;;;;;;;1.87;1.50;;;;;;;7.56;100.00;96350.06;5050539;28;20205;-86
2022/04/26 11:15:07;;;;;;;1.90;1.30;;;;;;;7.67;100.00;96358.47;5043147;28;20295;-85
2022/04/26 11:17:35;;;;;;;5.00;3.30;;;;;;;7.72;100.00;96364.06;5045996;28;20202;-86
2022/04/26 11:20:06;;;;;;;5.20;2.63;;;;;;;7.62;100.00;96351.06;5048448;28;20241;-86
2022/04/26 11:22:44;;;;;;;1.30;1.20;;;;;;;7.59;100.00;96362.22;5050014;28;20251;-85
2022/04/26 11:28:02;;;;;;;1.07;1.03;;;;;;;7.84;100.00;96362.34;5043091;28;20226;-85
2022/04/26 11:30:35;;;;;;;3.33;1.20;;;;;;;7.95;100.00;96356.31;5043032;28;20210;-86
2022/04/26 11:33:05;;;;;;;1.57;1.00;;;;;;;8.05;100.00;96345.94;5057064;28;20234;-84
2022/04/26 11:35:35;;;;;;;1.07;0.97;;;;;;;8.20;100.00;96348.31;5055674;28;20301;-88
2022/04/26 11:38:08;;;;;;;2.20;0.97;;;;;;;8.34;100.00;96348.06;5042968;28;20207;-85
2022/04/26 11:40:38;;;;;;;0.80;0.80;;;;;;;8.48;100.00;96356.06;5031711;28;20907;-85
2022/04/26 11:43:11;;;;;;;1.00;0.90;;;;;;;8.51;100.00;96361.00;5049037;28;20206;-85
2022/04/26 11:45:40;;;;;;;5.73;1.10;;;;;;;8.54;100.00;96366.78;5048154;28;20206;-85
2022/04/26 11:48:12;;;;;;;3.60;1.00;;;;;;;8.56;100.00;96378.16;5048044;28;20226;-85
2022/04/26 11:50:41;;;;;;;1.63;0.90;;;;;;;8.59;100.00;96375.00;5064834;28;20292;-85
2022/04/26 11:53:11;;;;;;;1.07;0.80;;;;;;;8.71;100.00;96380.53;5061348;28;20281;-86
2022/04/26 11:55:39;;;;;;;2.30;1.00;;;;;;;8.75;100.00;96370.16;5047379;28;20206;-85
2022/04/26 11:58:09;;;;;;;2.50;1.10;;;;;;;8.63;100.00;96370.84;5040986;28;20272;-85
2022/04/26 12:00:37;;;;;;;1.47;1.10;;;;;;;8.64;100.00;96371.69;5044834;28;20212;-85
2022/04/26 12:03:07;;;;;;;1.20;1.07;;;;;;;8.66;100.00;96370.44;5042777;28;20256;-85
2022/04/26 12:05:40;;;;;;;0.90;0.90;;;;;;;8.61;100.00;96377.50;5051614;28;20270;-85
2022/04/26 12:08:12;;;;;;;1.83;1.03;;;;;;;8.61;100.00;96377.50;5044016;28;20230;-85
2022/04/26 12:10:39;;;;;;;1.57;0.90;;;;;;;8.54;100.00;96374.03;5049273;28;20300;-85
2022/04/26 12:13:07;;;;;;;2.37;1.00;;;;;;;8.46;100.00;96382.34;5063562;28;20221;-85
2022/04/26 12:15:36;;;;;;;0.80;0.80;;;;;;;8.43;100.00;96372.00;5053953;28;20206;-85
2022/04/26 12:18:11;;;;;;;3.13;0.93;;;;;;;8.48;100.00;96374.91;5049782;28;20233;-86
2022/04/26 12:20:57;;;;;;;1.13;1.03;;;;;;;8.50;100.00;96375.50;5055451;28;20233;-85
2022/04/26 12:23:26;;;;;;;1.67;1.10;;;;;;;8.63;100.00;96370.03;5043058;28;20236;-85
2022/04/26 12:25:57;;;;;;;1.00;0.90;;;;;;;8.78;100.00;96369.72;5036351;28;20203;-85
2022/04/26 12:28:25;;;;;;;1.10;1.00;;;;;;;8.85;100.00;96363.22;5043002;28;20303;-86
2022/04/26 12:30:53;;;;;;;1.07;1.00;;;;;;;8.80;100.00;96365.78;5035468;28;20240;-85
2022/04/26 12:33:29;;;;;;;1.40;1.10;;;;;;;8.86;100.00;96358.66;5049367;28;20294;-86
2022/04/26 12:35:58;;;;;;;1.10;1.00;;;;;;;8.89;100.00;96359.06;5049419;28;20201;-85
2022/04/26 12:38:27;;;;;;;1.27;1.17;;;;;;;9.02;100.00;96353.56;5041268;28;20214;-84
2022/04/26 12:41:05;;;;;;;1.13;1.03;;;;;;;9.25;100.00;96347.56;5056422;28;20234;-85
2022/04/26 12:43:34;;;;;;;2.93;1.10;;;;;;;9.29;100.00;96343.38;5048980;28;20217;-85
2022/04/26 12:46:03;;;;;;;1.30;1.20;;;;;;;9.27;100.00;96340.06;5047815;28;20225;-84
2022/04/26 12:51:20;;;;;;;1.37;1.13;;;;;;;9.40;100.00;96345.34;5045745;28;20200;-85
2022/04/26 12:53:50;;;;;;;1.20;1.10;;;;;;;9.61;100.00;96335.97;5035696;28;20272;-85
2022/04/26 12:56:18;;;;;;;1.30;1.03;;;;;;;10.03;100.00;96328.88;5061609;28;20197;-85
2022/04/26 12:58:46;;;;;;;0.90;0.90;;;;;;;10.48;100.00;96326.59;5054687;28;20213;-85
2022/04/26 13:01:15;;;;;;;1.50;1.10;;;;;;;10.81;100.00;96333.38;5025022;28;20223;-85
2022/04/26 13:03:43;;;;;;;1.00;0.97;;;;;;;11.12;100.00;96332.25;5040765;28;20268;-85
2022/04/26 13:06:12;;;;;;;0.77;0.77;;;;;;;11.08;100.00;96336.47;5059625;28;20308;-84
2022/04/26 13:08:41;;;;;;;0.90;0.90;;;;;;;10.87;100.00;96327.06;5067782;28;20252;-85
2022/04/26 13:11:10;;;;;;;1.67;0.90;;;;;;;10.70;100.00;96307.19;5046908;28;20205;-85
2022/04/26 13:13:39;;;;;;;6.43;1.30;;;;;;;10.85;100.00;96312.97;5048025;28;20248;-85
2022/04/26 13:16:07;;;;;;;3.50;1.00;;;;;;;11.06;100.00;96306.97;5048821;28;20218;-84
2022/04/26 13:18:35;;;;;;;1.37;1.00;;;;;;;11.25;100.00;96308.50;5050849;28;20205;-84
2022/04/26 13:21:03;;;;;;;1.30;1.20;;;;;;;11.25;100.00;96296.88;5052338;28;20201;-85
2022/04/26 13:23:32;;;;;;;3.33;1.50;;;;;;;11.53;100.00;96291.56;5061599;28;20321;-85
2022/04/26 13:25:59;;;;;;;1.13;1.00;;;;;;;11.58;100.00;96299.78;5046266;28;20206;-85
2022/04/26 13:28:28;;;;;;;1.17;0.90;;;;;;;11.50;100.00;96299.31;5038757;28;20241;-84
2022/04/26 13:30:55;;;;;;;0.80;0.80;;;;;;;11.52;100.00;96294.50;5041431;28;20197;-84
2022/04/26 13:33:23;;;;;;;0.90;0.90;;;;;;;11.32;100.00;96311.91;5040363;28;20265;-84
2022/04/26 13:35:50;;;;;;;1.40;1.30;;;;;;;11.14;100.00;96314.75;5059014;28;20201;-84
2022/04/26 13:38:19;;;;;;;1.93;1.40;;;;;;;11.22;100.00;96306.31;5038296;28;20217;-84
2022/04/26 13:40:48;;;;;;;1.30;1.00;;;;;;;11.43;100.00;96306.75;5036504;28;20206;-84
2022/04/26 13:43:16;;;;;;;1.13;1.00;;;;;;;11.58;100.00;96293.56;5056773;28;20292;-84
2022/04/26 13:45:44;;;;;;;1.30;1.07;;;;;;;11.95;100.00;96296.81;5059568;28;20202;-84
2022/04/26 13:48:12;;;;;;;2.33;1.40;;;;;;;12.20;100.00;96285.66;5041699;28;20226;-84
2022/04/26 13:50:40;;;;;;;5.60;1.50;;;;;;;12.43;100.00;96288.25;5039784;28;20270;-84
2022/04/26 13:53:08;;;;;;;2.20;1.40;;;;;;;12.50;100.00;96292.44;5055482;28;20236;-85
2022/04/26 13:55:35;;;;;;;1.90;1.00;;;;;;;12.35;91.75;96289.47;5043316;28;20194;-84
2022/04/26 13:58:05;;;;;;;1.13;0.80;;;;;;;12.47;91.45;96292.13;5050168;28;20209;-84
2022/04/26 14:00:34;;;;;;;2.70;0.90;;;;;;;12.50;87.29;96281.59;5049883;28;20198;-84
2022/04/26 14:03:02;;;;;;;1.33;0.93;;;;;;;12.56;90.43;96277.13;5064528;28;20229;-85
2022/04/26 14:05:30;;;;;;;0.60;0.60;;;;;;;12.49;85.03;96273.75;5037453;28;20217;-84
2022/04/26 14:07:57;;;;;;;2.43;0.80;;;;;;;12.50;85.02;96270.78;5052938;28;20229;-85
2022/04/26 14:10:24;;;;;;;1.23;0.80;;;;;;;12.54;81.24;96270.28;5049425;28;20206;-85
2022/04/26 14:12:51;;;;;;;1.00;0.80;;;;;;;12.58;83.39;96269.56;5057263;28;20206;-86
2022/04/26 14:23:34;;;;;;;1.00;1.00;;;;;;;12.58;88.34;96261.44;5051407;28;20322;-85
2022/04/26 14:26:03;;;;;;;2.20;1.73;;;;;;;12.75;89.75;96254.16;5033706;28;20225;-86
2022/04/26 14:28:31;;;;;;;0.90;0.80;;;;;;;12.87;87.75;96265.72;5054153;28;20301;-85
2022/04/26 14:30:58;;;;;;;1.63;0.80;;;;;;;12.78;86.01;96256.34;5046999;28;20202;-85
2022/04/26 14:33:27;;;;;;;1.10;0.90;;;;;;;12.93;85.90;96246.84;5046322;28;20305;-85
2022/04/26 14:35:54;;;;;;;0.80;0.80;;;;;;;13.13;87.90;96236.28;5054389;28;20205;-85
2022/04/26 14:38:21;;;;;;;6.70;4.67;;;;;;;13.37;90.13;96242.34;5052315;28;20201;-86
2022/04/26 14:40:49;;;;;;;2.63;1.07;;;;;;;13.54;86.46;96241.22;5049018;28;20209;-85
2022/04/26 14:43:16;;;;;;;1.00;0.90;;;;;;;13.37;86.69;96232.31;5049981;28;20208;-85
2022/04/26 14:45:46;;;;;;;1.40;0.90;;;;;;;13.49;83.67;96246.59;5047269;28;20343;-86
2022/04/26 14:48:16;;;;;;;1.27;0.90;;;;;;;13.33;85.21;96242.03;5047597;28;20230;-86
2022/04/26 14:50:45;;;;;;;2.13;1.10;;;;;;;12.97;88.03;96234.41;5057875;28;20225;-85
2022/04/26 14:53:13;;;;;;;2.77;1.00;;;;;;;13.01;92.03;96232.88;5060581;28;20225;-86
2022/04/26 14:55:41;;;;;;;1.70;1.30;;;;;;;13.19;92.83;96228.00;5039213;28;20206;-85
2022/04/26 14:58:10;;;;;;;1.37;1.10;;;;;;;13.34;90.27;96232.03;5049052;28;20200;-85
2022/04/26 15:00:38;;;;;;;1.23;1.10;;;;;;;13.33;90.76;96228.50;5060362;28;20237;-86
2022/04/26 15:03:05;;;;;;;1.73;1.37;;;;;;;13.32;90.53;96234.97;5036710;28;20214;-86
2022/04/26 15:05:32;;;;;;;1.20;1.10;;;;;;;13.26;91.47;96225.13;5047221;28;20209;-86
2022/04/26 15:10:46;;;;;;;3.70;1.40;;;;;;;13.10;95.60;96234.09;5060767;28;20284;-85
2022/04/26 15:18:42;;;;;;;2.83;2.10;;;;;;;12.67;99.78;96232.91;5058827;28;20263;-86
2022/04/26 15:21:10;;;;;;;3.20;1.80;;;;;;;12.55;99.87;96224.00;5035555;28;20209;-86
2022/04/26 15:23:38;;;;;;;2.97;2.40;;;;;;;12.38;100.00;96236.72;5052944;28;20225;-85
2022/04/26 15:26:08;;;;;;;1.90;1.80;;;;;;;12.27;100.00;96232.16;5031023;28;20344;-86
2022/04/26 15:28:35;;;;;;;1.60;1.50;;;;;;;12.20;100.00;96236.91;5052853;28;20233;-85
2022/04/26 15:31:03;;;;;;;2.83;1.50;;;;;;;12.30;100.00;96231.69;5040955;28;20225;-86
2022/04/26 15:33:30;;;;;;;2.30;1.60;;;;;;;12.44;100.00;96238.44;5057607;28;20233;-85
2022/04/26 15:35:57;;;;;;;2.50;1.43;;;;;;;12.39;100.00;96241.06;5042689;28;20319;-85
2022/04/26 15:38:27;;;;;;;2.23;1.60;;;;;;;12.38;100.00;96236.72;5046493;28;20214;-84
2022/04/26 15:41:01;;;;;;;1.40;1.30;;;;;;;12.25;100.00;96229.69;5045301;28;20208;-85
2022/04/26 15:43:30;;;;;;;4.70;2.20;;;;;;;12.24;99.74;96232.69;5057304;28;20209;-85
2022/04/26 15:45:58;;;;;;;2.43;1.80;;;;;;;12.35;99.77;96232.59;5036590;28;20202;-85
2022/04/26 15:48:27;;;;;;;2.40;1.70;;;;;;;12.34;99.84;96230.13;5056806;28;20243;-85
2022/04/26 15:50:55;;;;;;;1.40;1.13;;;;;;;12.24;98.74;96222.69;5047017;28;20250;-85
2022/04/26 15:53:22;;;;;;;6.13;1.60;;;;;;;12.17;98.65;96213.84;5038052;28;20285;-85